Time;durP1;ratioP1;P1;durP2;ratioP2;P2;SDS_P1;SDS_P2;PMS_P1;PMS_P2;Temp;Humidity;BMP_temperature;BMP_pressure;BME280_temperature;BME280_humidity;BME280_pressure;Samples;Min_cycle;Max_cycle;Signal;HPM_P1;HPM_P2
2022/08/04 00:00:39;;;;;;;4.60;3.75;;;20.40;99.90;;;;;;5094954;28;20197;-74
2022/08/04 00:03:13;;;;;;;3.28;2.97;;;20.30;99.90;;;;;;5094763;28;20232;-74
2022/08/04 00:05:59;;;;;;;5.38;3.03;;;20.20;99.90;;;;;;5094730;28;20283;-73
2022/08/04 00:08:34;;;;;;;6.75;2.85;;;20.20;99.90;;;;;;5094775;28;20196;-73
2022/08/04 00:11:02;;;;;;;4.47;3.15;;;20.20;99.90;;;;;;5094616;28;20223;-73
2022/08/04 00:13:32;;;;;;;5.95;3.30;;;20.20;99.90;;;;;;5094732;28;20246;-74
2022/08/04 00:16:05;;;;;;;4.65;3.17;;;20.10;99.90;;;;;;5094428;28;20201;-74
2022/08/04 00:18:35;;;;;;;5.95;3.50;;;20.10;99.90;;;;;;5091131;28;20254;-74
2022/08/04 00:21:06;;;;;;;5.57;4.03;;;20.10;99.90;;;;;;5074256;28;20228;-73
2022/08/04 00:23:35;;;;;;;4.45;3.72;;;20.10;99.90;;;;;;5074181;28;20208;-74
2022/08/04 00:26:01;;;;;;;5.65;4.28;;;20.00;99.90;;;;;;5074049;28;20288;-73
2022/08/04 00:28:28;;;;;;;7.18;4.10;;;20.10;99.90;;;;;;5073938;28;20197;-73
2022/08/04 00:30:55;;;;;;;5.28;4.03;;;20.00;99.90;;;;;;5074077;28;20255;-73
2022/08/04 00:33:23;;;;;;;5.93;3.72;;;20.10;99.90;;;;;;5074086;28;20284;-73
2022/08/04 00:35:50;;;;;;;5.97;4.28;;;20.00;99.90;;;;;;5073965;28;20231;-74
2022/08/04 00:38:18;;;;;;;5.22;3.88;;;20.00;99.90;;;;;;5074066;28;20197;-73
2022/08/04 00:40:55;;;;;;;5.65;3.78;;;20.00;99.90;;;;;;5073630;28;20236;-74
2022/08/04 00:43:31;;;;;;;7.47;4.18;;;19.90;99.90;;;;;;5074068;28;20258;-73
2022/08/04 00:46:17;;;;;;;6.93;3.72;;;20.00;99.90;;;;;;5073904;28;20215;-73
2022/08/04 00:49:12;;;;;;;4.93;4.03;;;19.90;99.90;;;;;;5073587;28;20239;-73
2022/08/04 00:51:48;;;;;;;6.45;4.03;;;19.90;99.90;;;;;;5073549;28;20220;-74
2022/08/04 00:54:24;;;;;;;7.13;3.72;;;19.90;99.90;;;;;;5073713;28;20193;-74
2022/08/04 00:57:10;;;;;;;10.02;4.40;;;19.80;99.90;;;;;;5073605;28;20203;-73
2022/08/04 00:59:51;;;;;;;4.97;4.43;;;19.80;99.90;;;;;;5073320;28;20201;-73
2022/08/04 01:02:24;;;;;;;4.60;4.10;;;19.80;99.90;;;;;;5072768;28;20207;-74
2022/08/04 01:05:04;;;;;;;4.72;3.75;;;19.80;99.90;;;;;;5073405;28;20254;-73
2022/08/04 01:07:48;;;;;;;4.30;3.90;;;19.70;99.90;;;;;;5073608;28;20199;-73
2022/08/04 01:10:23;;;;;;;7.28;3.90;;;19.60;99.90;;;;;;5073147;28;20262;-73
2022/08/04 01:13:04;;;;;;;5.90;4.00;;;19.50;99.90;;;;;;5073191;28;20301;-73
2022/08/04 01:15:39;;;;;;;4.80;3.97;;;19.40;99.90;;;;;;5073280;28;20197;-73
2022/08/04 01:18:08;;;;;;;5.38;3.92;;;19.40;99.90;;;;;;5073143;28;20246;-73
2022/08/04 01:20:55;;;;;;;7.10;3.95;;;19.30;99.90;;;;;;5072992;28;20201;-73
2022/08/04 01:24:00;;;;;;;5.47;4.07;;;19.30;99.90;;;;;;5073195;28;20197;-73
2022/08/04 01:26:43;;;;;;;5.30;3.60;;;19.30;99.90;;;;;;5051999;28;20200;-73
2022/08/04 01:29:12;;;;;;;6.75;4.05;;;19.20;99.90;;;;;;5073199;28;20197;-73
2022/08/04 01:31:59;;;;;;;4.20;3.75;;;19.10;99.90;;;;;;5072941;28;20217;-73
2022/08/04 01:34:29;;;;;;;4.65;3.85;;;19.10;99.90;;;;;;5072961;28;20205;-73
2022/08/04 01:37:00;;;;;;;7.10;3.78;;;19.10;99.90;;;;;;5072882;28;20246;-73
2022/08/04 01:39:40;;;;;;;6.13;4.35;;;19.00;99.90;;;;;;5072676;28;20282;-73
2022/08/04 01:42:09;;;;;;;5.40;4.20;;;19.00;99.90;;;;;;5072859;28;20658;-73
2022/08/04 01:44:39;;;;;;;5.13;4.18;;;19.00;99.90;;;;;;5072835;28;20299;-73
2022/08/04 01:47:07;;;;;;;4.68;3.80;;;19.00;99.90;;;;;;5072834;28;20258;-74
2022/08/04 01:49:35;;;;;;;6.88;3.90;;;18.90;99.90;;;;;;5072705;28;20204;-73
2022/08/04 01:52:03;;;;;;;6.88;4.45;;;18.90;99.90;;;;;;5072789;28;20225;-74
2022/08/04 01:54:32;;;;;;;4.95;4.15;;;19.00;99.90;;;;;;5072824;28;20266;-73
2022/08/04 01:57:04;;;;;;;7.38;4.50;;;18.90;99.90;;;;;;5072633;28;20231;-73
2022/08/04 01:59:34;;;;;;;5.82;4.38;;;18.90;99.90;;;;;;5072706;28;20200;-74
2022/08/04 02:02:02;;;;;;;7.68;4.32;;;18.90;99.90;;;;;;5072593;28;20192;-73
2022/08/04 02:04:28;;;;;;;5.35;4.45;;;18.90;99.90;;;;;;5072524;28;20197;-73
2022/08/04 02:07:03;;;;;;;6.80;4.60;;;19.00;99.90;;;;;;5072771;28;20200;-73
2022/08/04 02:09:38;;;;;;;4.60;4.18;;;18.80;99.90;;;;;;5072773;28;20206;-74
2022/08/04 02:12:15;;;;;;;8.73;4.60;;;18.60;99.90;;;;;;5072684;28;20273;-73
2022/08/04 02:14:48;;;;;;;5.72;3.95;;;18.60;99.90;;;;;;5076628;28;20200;-73
2022/08/04 02:17:25;;;;;;;9.18;4.45;;;18.60;99.90;;;;;;5076874;28;20205;-73
2022/08/04 02:20:07;;;;;;;4.68;4.25;;;18.50;99.90;;;;;;5076654;28;20217;-73
2022/08/04 02:22:39;;;;;;;5.28;4.78;;;18.60;99.90;;;;;;5076505;28;20208;-74
2022/08/04 02:25:08;;;;;;;10.43;4.40;;;18.50;99.90;;;;;;5076328;28;20193;-73
2022/08/04 02:27:55;;;;;;;8.93;4.88;;;18.50;99.90;;;;;;5076515;28;20197;-73
2022/08/04 02:30:27;;;;;;;8.23;4.70;;;18.50;99.90;;;;;;5076430;28;20204;-73
2022/08/04 02:32:58;;;;;;;5.72;4.88;;;18.50;99.90;;;;;;5076215;28;20275;-73
2022/08/04 02:35:27;;;;;;;5.13;4.63;;;18.40;99.90;;;;;;5076183;28;20200;-72
2022/08/04 02:38:03;;;;;;;4.95;4.45;;;18.40;99.90;;;;;;5076128;28;20205;-73
2022/08/04 02:40:31;;;;;;;7.15;4.25;;;18.40;99.90;;;;;;5076001;28;20274;-73
2022/08/04 02:42:58;;;;;;;5.00;4.47;;;18.40;99.90;;;;;;5076141;28;20196;-73
2022/08/04 02:45:26;;;;;;;5.32;4.47;;;18.30;99.90;;;;;;5075994;28;20220;-73
2022/08/04 02:47:55;;;;;;;5.38;4.45;;;18.30;99.90;;;;;;5075822;28;20205;-73
2022/08/04 02:50:23;;;;;;;5.60;4.32;;;18.20;99.90;;;;;;5076023;28;20200;-73
2022/08/04 02:52:51;;;;;;;5.88;4.63;;;18.20;99.90;;;;;;5075850;28;20221;-73
2022/08/04 02:55:19;;;;;;;5.22;4.25;;;18.20;99.90;;;;;;5075857;28;20258;-73
2022/08/04 02:57:49;;;;;;;6.05;4.13;;;18.20;99.90;;;;;;5075892;28;20213;-73
2022/08/04 03:00:18;;;;;;;4.95;4.20;;;18.10;99.90;;;;;;5075744;28;20219;-73
2022/08/04 03:02:56;;;;;;;4.82;4.15;;;18.00;99.90;;;;;;5075649;28;20560;-73
2022/08/04 03:05:31;;;;;;;8.38;5.00;;;18.00;99.90;;;;;;5075784;28;20197;-73
2022/08/04 03:08:42;;;;;;;7.32;4.57;;;18.00;99.90;;;;;;5075676;28;20254;-73
2022/08/04 03:11:28;;;;;;;7.82;5.07;;;18.00;99.90;;;;;;5029058;28;20201;-73
2022/08/04 03:14:34;;;;;;;6.28;5.50;;;18.00;99.90;;;;;;5075391;28;20719;-73
2022/08/04 03:17:30;;;;;;;8.77;6.68;;;18.00;99.90;;;;;;5075548;28;20193;-73
2022/08/04 03:20:31;;;;;;;9.55;6.60;;;18.00;99.90;;;;;;5075650;28;20250;-73
2022/08/04 03:23:22;;;;;;;12.05;6.60;;;17.90;99.90;;;;;;5071352;28;20350;-73
2022/08/04 03:26:28;;;;;;;10.82;5.80;;;17.90;99.90;;;;;;5074425;28;20250;-73
2022/08/04 03:29:32;;;;;;;10.32;5.65;;;17.80;99.90;;;;;;4974381;28;20196;-73
2022/08/04 03:32:21;;;;;;;9.63;6.88;;;17.80;99.90;;;;;;5075052;28;20258;-73
2022/08/04 03:35:09;;;;;;;10.10;7.07;;;17.80;99.90;;;;;;5075228;28;20646;-73
2022/08/04 03:38:00;;;;;;;12.75;7.28;;;17.90;99.90;;;;;;5074961;28;20648;-73
2022/08/04 03:40:40;;;;;;;10.68;6.85;;;17.70;99.90;;;;;;5074766;28;20627;-73
2022/08/04 03:43:35;;;;;;;12.07;8.18;;;17.60;99.90;;;;;;5074954;28;20204;-74
2022/08/04 03:46:38;;;;;;;20.98;11.27;;;17.70;99.90;;;;;;5074888;28;20201;-73
2022/08/04 03:49:53;;;;;;;21.40;11.13;;;17.80;99.90;;;;;;5061894;28;20254;-73
2022/08/04 03:53:09;;;;;;;14.57;7.95;;;17.80;99.90;;;;;;5074711;28;20220;-73
2022/08/04 03:56:17;;;;;;;12.90;6.90;;;17.70;99.90;;;;;;5074856;28;20205;-73
2022/08/04 03:59:23;;;;;;;16.98;10.27;;;17.80;99.90;;;;;;5074614;28;20220;-73
2022/08/04 04:02:13;;;;;;;15.70;8.85;;;17.80;99.90;;;;;;5074760;28;20197;-73
2022/08/04 04:04:55;;;;;;;18.10;10.50;;;17.70;99.90;;;;;;5070473;28;20201;-73
2022/08/04 04:08:05;;;;;;;16.70;9.00;;;17.70;99.90;;;;;;5074576;28;20274;-73
2022/08/04 04:10:46;;;;;;;16.20;8.80;;;17.80;99.90;;;;;;5074554;28;20201;-73
2022/08/04 04:13:40;;;;;;;16.15;8.55;;;17.90;99.90;;;;;;5074240;28;20615;-73
2022/08/04 04:16:28;;;;;;;14.45;7.82;;;17.80;99.90;;;;;;5074429;28;20208;-73
2022/08/04 04:19:23;;;;;;;10.93;6.85;;;17.90;99.90;;;;;;5074239;28;20870;-73
2022/08/04 04:22:02;;;;;;;11.40;6.90;;;17.90;99.90;;;;;;5071188;28;20636;-73
2022/08/04 04:24:45;;;;;;;9.27;6.55;;;18.00;99.90;;;;;;5074241;28;20250;-73
2022/08/04 04:27:21;;;;;;;11.10;6.45;;;18.00;99.90;;;;;;5074199;28;20274;-74
2022/08/04 04:30:02;;;;;;;13.02;7.47;;;18.10;99.90;;;;;;5073966;28;20200;-74
2022/08/04 04:32:42;;;;;;;8.38;6.82;;;18.10;99.90;;;;;;5074240;28;20274;-73
2022/08/04 04:35:27;;;;;;;11.48;6.70;;;18.20;99.90;;;;;;5073888;28;20262;-74
2022/08/04 04:38:31;;;;;;;9.88;6.82;;;18.20;99.90;;;;;;5073628;28;20534;-73
2022/08/04 04:41:15;;;;;;;10.30;7.20;;;18.30;99.90;;;;;;5023443;28;20315;-73
2022/08/04 04:44:22;;;;;;;9.77;7.30;;;18.30;99.90;;;;;;5073811;28;20193;-74
2022/08/04 04:47:01;;;;;;;10.60;6.85;;;18.40;99.90;;;;;;5073596;28;20246;-73
2022/08/04 04:49:34;;;;;;;10.02;7.57;;;18.50;99.90;;;;;;5073911;28;20204;-73
2022/08/04 04:52:09;;;;;;;12.45;6.72;;;18.60;99.90;;;;;;5073888;28;20205;-73
2022/08/04 04:54:43;;;;;;;11.10;7.43;;;18.60;99.90;;;;;;5073578;28;20630;-73
2022/08/04 04:57:14;;;;;;;19.75;8.65;;;18.70;99.90;;;;;;5073699;28;20292;-74
2022/08/04 04:59:49;;;;;;;12.73;7.75;;;18.80;99.90;;;;;;5073696;28;20648;-74
2022/08/04 05:03:05;;;;;;;11.07;7.15;;;18.90;99.90;;;;;;5056185;28;20258;-73
2022/08/04 05:05:41;;;;;;;11.35;6.53;;;18.90;99.90;;;;;;5074237;28;20201;-74
2022/08/04 05:08:30;;;;;;;8.52;5.63;;;19.00;99.90;;;;;;5073802;28;20219;-74
2022/08/04 05:11:14;;;;;;;11.90;6.28;;;19.10;99.90;;;;;;5073555;28;20258;-73
2022/08/04 05:13:45;;;;;;;11.13;6.78;;;19.20;99.90;;;;;;5072538;28;20688;-73
2022/08/04 05:16:18;;;;;;;11.38;5.70;;;19.30;99.90;;;;;;5085085;28;20200;-73
2022/08/04 05:18:54;;;;;;;10.05;5.88;;;19.40;99.90;;;;;;5072990;28;20249;-74
2022/08/04 05:21:37;;;;;;;7.28;5.82;;;19.50;99.90;;;;;;5073053;28;20209;-73
2022/08/04 05:24:08;;;;;;;11.40;6.25;;;19.60;99.90;;;;;;5072969;28;20200;-73
2022/08/04 05:26:40;;;;;;;9.65;6.10;;;19.60;99.90;;;;;;5072883;28;20205;-73
2022/08/04 05:29:11;;;;;;;7.35;6.07;;;19.70;99.90;;;;;;5072903;28;20603;-73
2022/08/04 05:31:42;;;;;;;6.63;5.93;;;19.90;99.90;;;;;;5072779;28;20201;-72
2022/08/04 05:34:15;;;;;;;11.43;6.57;;;20.00;99.90;;;;;;5072603;28;20692;-73
2022/08/04 05:36:46;;;;;;;12.40;7.18;;;20.10;99.90;;;;;;5072519;28;20232;-74
2022/08/04 05:39:18;;;;;;;8.82;6.07;;;20.30;99.90;;;;;;5072939;28;20193;-73
2022/08/04 05:41:46;;;;;;;9.23;6.10;;;20.50;99.90;;;;;;5072661;28;20250;-73
2022/08/04 05:44:14;;;;;;;12.95;5.57;;;20.60;99.90;;;;;;5072131;28;20651;-74
2022/08/04 05:46:43;;;;;;;9.82;5.35;;;20.80;99.90;;;;;;5072599;28;20201;-74
2022/08/04 05:49:11;;;;;;;8.70;5.97;;;20.90;99.90;;;;;;5071676;28;20706;-74
2022/08/04 05:51:39;;;;;;;6.70;5.30;;;21.00;99.90;;;;;;5072258;28;20208;-74
2022/08/04 05:54:06;;;;;;;7.45;5.75;;;21.10;99.90;;;;;;5072589;28;20275;-74
2022/08/04 05:56:34;;;;;;;6.00;5.40;;;21.20;99.90;;;;;;5072590;28;20666;-74
2022/08/04 05:59:03;;;;;;;7.00;4.63;;;21.40;99.90;;;;;;5072530;28;20239;-73
2022/08/04 06:01:32;;;;;;;7.22;4.85;;;21.50;99.90;;;;;;5072449;28;20203;-74
2022/08/04 06:04:01;;;;;;;7.13;5.07;;;21.60;99.90;;;;;;5072300;28;20200;-74
2022/08/04 06:06:30;;;;;;;6.07;4.47;;;21.80;99.90;;;;;;5072412;28;20197;-74
2022/08/04 06:08:57;;;;;;;11.85;4.70;;;21.90;99.90;;;;;;5072502;28;20204;-73
2022/08/04 06:11:26;;;;;;;7.20;4.82;;;22.10;99.90;;;;;;5072432;28;20226;-73
2022/08/04 06:13:56;;;;;;;7.43;4.40;;;22.20;99.90;;;;;;5090353;28;20750;-73
2022/08/04 06:16:26;;;;;;;6.72;4.32;;;22.30;99.90;;;;;;5089939;28;20626;-73
2022/08/04 06:18:56;;;;;;;6.40;4.30;;;22.40;99.90;;;;;;5078797;28;20247;-73
2022/08/04 06:21:26;;;;;;;6.70;4.22;;;22.60;99.90;;;;;;5072619;28;20204;-73
2022/08/04 06:23:56;;;;;;;8.07;4.72;;;22.80;99.90;;;;;;5072275;28;20652;-73
2022/08/04 06:26:25;;;;;;;6.00;4.15;;;22.90;99.90;;;;;;5072435;28;20193;-73
2022/08/04 06:28:52;;;;;;;9.00;4.20;;;23.10;99.90;;;;;;5072150;28;20250;-73
2022/08/04 06:31:31;;;;;;;5.32;4.30;;;23.20;99.90;;;;;;5072310;28;20722;-73
2022/08/04 06:34:01;;;;;;;3.65;3.35;;;23.40;99.90;;;;;;5072384;28;20247;-73
2022/08/04 06:36:29;;;;;;;5.88;3.42;;;23.50;99.90;;;;;;5072379;28;20235;-73
2022/08/04 06:38:58;;;;;;;7.80;3.75;;;23.70;99.90;;;;;;5071865;28;20193;-73
2022/08/04 06:41:25;;;;;;;4.47;3.72;;;23.80;99.90;;;;;;5070694;28;20641;-73
2022/08/04 06:43:53;;;;;;;8.48;3.28;;;24.00;99.90;;;;;;5071419;28;20872;-73
2022/08/04 06:46:21;;;;;;;5.65;3.85;;;24.10;99.90;;;;;;5072383;28;20603;-73
2022/08/04 06:48:49;;;;;;;5.70;3.50;;;24.20;99.90;;;;;;5072177;28;20652;-73
2022/08/04 06:51:17;;;;;;;7.90;4.20;;;24.30;99.90;;;;;;5072119;28;20197;-73
2022/08/04 06:53:44;;;;;;;6.25;3.42;;;24.50;99.90;;;;;;5072155;28;20225;-74
2022/08/04 06:56:14;;;;;;;6.32;3.60;;;24.60;99.90;;;;;;5072136;28;20710;-73
2022/08/04 06:58:42;;;;;;;5.43;3.40;;;24.70;99.90;;;;;;5072640;28;20751;-74
2022/08/04 07:01:09;;;;;;;5.68;3.00;;;24.90;99.90;;;;;;5074813;28;20270;-73
2022/08/04 07:03:36;;;;;;;5.18;3.35;;;25.00;99.90;;;;;;5075797;28;20262;-73
2022/08/04 07:06:04;;;;;;;3.90;3.50;;;25.10;99.90;;;;;;5092655;28;20590;-73
2022/08/04 07:08:30;;;;;;;7.38;3.85;;;25.20;99.90;;;;;;5095787;28;20601;-73
2022/08/04 07:10:58;;;;;;;5.75;3.65;;;25.40;99.90;;;;;;5096120;28;20283;-73
2022/08/04 07:13:27;;;;;;;3.78;3.38;;;25.50;99.90;;;;;;5095617;28;20273;-73
2022/08/04 07:15:56;;;;;;;9.45;3.97;;;25.50;99.90;;;;;;5095724;28;20648;-73
2022/08/04 07:18:22;;;;;;;4.63;3.25;;;25.70;99.90;;;;;;5095730;28;20201;-73
2022/08/04 07:20:49;;;;;;;4.22;2.90;;;25.80;99.90;;;;;;5095754;28;20196;-75
2022/08/04 07:23:18;;;;;;;3.90;3.60;;;25.90;99.90;;;;;;5095615;28;20200;-73
2022/08/04 07:25:51;;;;;;;4.88;3.15;;;26.00;99.90;;;;;;5095671;28;20196;-72
2022/08/04 07:28:18;;;;;;;5.53;3.30;;;26.20;99.90;;;;;;5095677;28;20200;-74
2022/08/04 07:30:47;;;;;;;9.82;4.22;;;26.40;99.90;;;;;;5091339;28;20188;-73
2022/08/04 07:33:16;;;;;;;3.55;3.25;;;26.60;99.90;;;;;;5094066;28;20241;-74
2022/08/04 07:35:43;;;;;;;4.50;3.20;;;26.80;99.90;;;;;;5091259;28;20197;-73
2022/08/04 07:38:10;;;;;;;6.35;2.80;;;26.90;99.90;;;;;;5094518;28;20204;-72
2022/08/04 07:40:38;;;;;;;2.72;2.53;;;27.10;99.90;;;;;;5109042;28;20223;-74
2022/08/04 07:43:05;;;;;;;5.28;2.20;;;27.40;99.60;;;;;;5114870;28;20200;-72
2022/08/04 07:45:32;;;;;;;3.58;2.35;;;27.70;96.30;;;;;;5115482;28;20199;-72
2022/08/04 07:48:02;;;;;;;2.90;2.60;;;27.80;94.20;;;;;;5115437;28;20296;-74
2022/08/04 07:50:29;;;;;;;5.70;2.70;;;28.00;94.00;;;;;;5115842;28;20195;-74
2022/08/04 07:52:57;;;;;;;4.32;2.47;;;28.20;92.70;;;;;;5115667;28;20720;-75
2022/08/04 07:55:24;;;;;;;2.78;2.50;;;28.30;91.60;;;;;;5100829;28;20286;-74
2022/08/04 07:57:51;;;;;;;2.85;2.55;;;28.40;90.30;;;;;;5075213;28;20197;-74
2022/08/04 08:00:17;;;;;;;3.67;2.45;;;28.50;88.80;;;;;;5075227;28;20193;-74
2022/08/04 08:02:48;;;;;;;3.92;2.50;;;28.70;86.10;;;;;;5075325;28;20235;-76
2022/08/04 08:05:18;;;;;;;6.15;2.47;;;28.80;85.30;;;;;;5074983;28;20196;-74
2022/08/04 08:07:46;;;;;;;4.30;2.35;;;28.90;84.10;;;;;;5091665;28;20237;-76
2022/08/04 08:10:15;;;;;;;3.17;2.10;;;29.00;81.50;;;;;;5094646;28;20608;-77
2022/08/04 08:12:42;;;;;;;2.63;2.20;;;29.20;77.10;;;;;;5094340;28;20204;-74
2022/08/04 08:15:11;;;;;;;3.05;2.38;;;29.20;74.90;;;;;;5099402;28;20228;-75
2022/08/04 08:17:39;;;;;;;2.97;2.08;;;29.20;73.30;;;;;;5115284;28;20293;-75
2022/08/04 08:20:08;;;;;;;2.28;2.08;;;29.30;69.80;;;;;;5114717;28;20596;-74
2022/08/04 08:22:37;;;;;;;4.35;2.20;;;29.40;64.60;;;;;;5095742;28;20624;-75
2022/08/04 08:25:05;;;;;;;2.47;1.90;;;29.40;62.60;;;;;;5091610;28;20410;-76
2022/08/04 08:27:31;;;;;;;3.50;2.13;;;29.50;58.60;;;;;;5099591;28;20197;-76
2022/08/04 08:29:59;;;;;;;3.40;1.95;;;29.50;56.90;;;;;;5094245;28;20246;-76
2022/08/04 08:32:27;;;;;;;3.22;2.30;;;29.60;54.40;;;;;;5094007;28;20269;-76
2022/08/04 08:34:54;;;;;;;1.90;1.80;;;29.50;52.60;;;;;;5093555;28;20219;-74
2022/08/04 08:37:26;;;;;;;2.17;1.98;;;29.60;51.30;;;;;;5093795;28;20541;-75
2022/08/04 08:39:59;;;;;;;2.63;1.80;;;29.70;48.40;;;;;;5093619;28;20228;-74
2022/08/04 08:42:44;;;;;;;2.20;2.00;;;29.80;46.80;;;;;;5093889;28;20200;-76
2022/08/04 08:45:53;;;;;;;2.92;1.95;;;29.90;46.70;;;;;;5093673;28;20238;-77
2022/08/04 08:48:47;;;;;;;6.05;2.00;;;30.10;44.80;;;;;;5093478;28;20196;-75
2022/08/04 08:51:36;;;;;;;3.22;1.90;;;30.50;42.30;;;;;;5093395;28;20598;-75
2022/08/04 08:54:33;;;;;;;2.95;1.80;;;30.80;39.90;;;;;;5092883;28;20281;-76
2022/08/04 08:57:31;;;;;;;3.70;2.00;;;31.10;38.10;;;;;;5088683;28;20197;-74
2022/08/04 09:00:09;;;;;;;3.47;1.80;;;31.30;36.00;;;;;;5057948;28;20231;-74
2022/08/04 09:03:06;;;;;;;3.38;1.73;;;31.50;34.90;;;;;;5087403;28;20226;-76
2022/08/04 09:05:56;;;;;;;2.38;1.90;;;31.60;33.40;;;;;;5093371;28;20245;-75
2022/08/04 09:08:37;;;;;;;2.55;2.00;;;31.60;33.20;;;;;;5080807;28;20188;-75
2022/08/04 09:11:09;;;;;;;1.80;1.70;;;31.80;31.70;;;;;;5074155;28;20197;-75
2022/08/04 09:13:45;;;;;;;6.55;2.10;;;32.00;30.30;;;;;;5073223;28;20227;-75
2022/08/04 09:16:19;;;;;;;2.45;1.85;;;31.90;30.40;;;;;;5074195;28;20295;-75
2022/08/04 09:18:53;;;;;;;2.00;1.90;;;32.00;30.10;;;;;;5074721;28;20215;-75
2022/08/04 09:21:29;;;;;;;2.28;1.90;;;32.20;30.70;;;;;;5073207;28;20208;-75
2022/08/04 09:24:06;;;;;;;3.92;1.90;;;32.70;29.90;;;;;;5072191;28;20204;-75
2022/08/04 09:26:40;;;;;;;3.70;1.80;;;32.80;28.80;;;;;;5073150;28;20193;-76
2022/08/04 09:29:17;;;;;;;3.95;1.90;;;32.90;27.70;;;;;;5073110;28;20246;-75
2022/08/04 09:31:53;;;;;;;2.33;2.03;;;33.00;27.60;;;;;;5073704;28;20655;-76
2022/08/04 09:34:27;;;;;;;3.08;1.92;;;33.20;26.80;;;;;;5072124;28;20221;-75
2022/08/04 09:37:03;;;;;;;4.47;2.33;;;33.10;26.30;;;;;;5073018;28;20191;-75
2022/08/04 09:39:39;;;;;;;7.10;2.33;;;33.10;26.80;;;;;;5072837;28;20224;-75
2022/08/04 09:42:15;;;;;;;2.15;1.90;;;33.40;26.40;;;;;;5072419;28;20211;-77
2022/08/04 09:44:53;;;;;;;3.10;2.13;;;33.60;26.50;;;;;;5072740;28;20548;-76
2022/08/04 09:47:26;;;;;;;3.42;2.30;;;34.20;26.10;;;;;;5072996;28;20222;-75
2022/08/04 09:49:58;;;;;;;4.72;1.88;;;34.20;25.70;;;;;;5073072;28;20204;-74
2022/08/04 09:52:31;;;;;;;4.03;2.17;;;33.90;25.10;;;;;;5072740;28;20196;-74
2022/08/04 09:55:05;;;;;;;2.00;1.80;;;33.90;24.50;;;;;;5072565;28;20228;-76
2022/08/04 09:57:45;;;;;;;2.05;1.85;;;33.30;24.80;;;;;;5072896;28;20202;-75
2022/08/04 10:00:15;;;;;;;3.90;1.90;;;33.50;25.00;;;;;;5072248;28;20235;-76
2022/08/04 10:02:46;;;;;;;2.30;2.10;;;34.20;24.20;;;;;;5072599;28;20218;-76
2022/08/04 10:05:16;;;;;;;2.20;2.00;;;34.00;24.10;;;;;;5072588;28;20193;-75
2022/08/04 10:07:57;;;;;;;2.33;2.10;;;33.90;23.80;;;;;;5072495;28;20247;-76
2022/08/04 10:10:33;;;;;;;2.20;2.00;;;34.00;23.90;;;;;;5072713;28;20200;-76
2022/08/04 10:13:29;;;;;;;3.70;2.45;;;34.00;23.50;;;;;;5072516;28;20201;-77
2022/08/04 10:16:11;;;;;;;3.22;2.28;;;34.00;24.50;;;;;;5072324;28;20220;-76
2022/08/04 10:18:50;;;;;;;2.20;2.00;;;35.00;23.30;;;;;;5072648;28;20199;-75
2022/08/04 10:21:23;;;;;;;4.28;1.90;;;34.70;23.30;;;;;;5072450;28;20563;-76
2022/08/04 10:24:14;;;;;;;2.42;2.03;;;34.60;22.20;;;;;;5072524;28;20200;-75
2022/08/04 10:26:48;;;;;;;4.65;2.15;;;34.00;22.90;;;;;;5072381;28;20674;-74
2022/08/04 10:29:22;;;;;;;2.30;2.10;;;34.50;22.70;;;;;;5072533;28;20228;-74
2022/08/04 10:31:55;;;;;;;3.85;2.10;;;34.70;21.50;;;;;;5072493;28;20196;-76
2022/08/04 10:34:27;;;;;;;4.18;1.90;;;35.20;20.90;;;;;;5073620;28;20266;-75
2022/08/04 10:37:00;;;;;;;2.80;2.20;;;35.30;20.80;;;;;;5076239;28;20200;-75
2022/08/04 10:39:36;;;;;;;2.58;2.20;;;36.10;20.70;;;;;;5070071;28;20225;-79
2022/08/04 10:42:12;;;;;;;2.30;1.90;;;36.00;20.40;;;;;;5090297;28;20195;-76
2022/08/04 10:44:53;;;;;;;3.88;2.00;;;36.70;19.80;;;;;;5078491;28;20200;-78
2022/08/04 10:47:27;;;;;;;4.20;2.17;;;37.40;19.00;;;;;;5090767;28;20925;-75
2022/08/04 10:49:58;;;;;;;2.15;2.00;;;37.80;19.10;;;;;;5095702;28;20192;-77
2022/08/04 10:52:32;;;;;;;4.43;1.85;;;38.20;18.20;;;;;;5096259;28;20249;-75
2022/08/04 10:55:06;;;;;;;2.20;1.90;;;39.10;17.30;;;;;;5095923;28;20215;-75
2022/08/04 10:57:36;;;;;;;6.32;1.75;;;39.10;17.10;;;;;;5095874;28;20196;-75
2022/08/04 11:00:07;;;;;;;2.63;1.90;;;39.40;17.40;;;;;;5096031;28;20234;-75
2022/08/04 11:02:41;;;;;;;1.83;1.70;;;39.50;16.80;;;;;;5095910;28;20202;-77
2022/08/04 11:05:18;;;;;;;1.98;1.83;;;39.80;16.90;;;;;;5095706;28;20574;-75
2022/08/04 11:07:49;;;;;;;2.30;2.10;;;40.60;16.40;;;;;;5095899;28;20207;-76
2022/08/04 11:10:20;;;;;;;5.22;1.90;;;41.60;16.10;;;;;;5095844;28;20196;-77
2022/08/04 11:12:50;;;;;;;2.88;1.75;;;41.80;14.90;;;;;;5095898;28;20196;-76
2022/08/04 11:15:23;;;;;;;6.47;2.13;;;39.60;15.30;;;;;;5095768;28;20223;-76
2022/08/04 11:17:57;;;;;;;3.20;1.88;;;40.50;15.30;;;;;;5095237;28;20196;-76
2022/08/04 11:20:29;;;;;;;3.72;2.10;;;41.80;14.50;;;;;;5095132;28;20196;-77
2022/08/04 11:23:02;;;;;;;3.97;1.80;;;42.60;14.20;;;;;;5095424;28;20200;-76
2022/08/04 11:25:35;;;;;;;1.95;1.83;;;43.00;13.40;;;;;;5095335;28;20206;-75
2022/08/04 11:28:10;;;;;;;2.45;2.25;;;42.30;12.90;;;;;;5095323;28;20825;-76
2022/08/04 11:30:42;;;;;;;2.45;1.85;;;41.60;13.50;;;;;;5095136;28;20252;-75
2022/08/04 11:33:21;;;;;;;2.10;1.90;;;41.90;13.60;;;;;;5095024;28;20200;-76
2022/08/04 11:35:55;;;;;;;2.97;1.90;;;41.30;13.10;;;;;;5095215;28;20231;-77
2022/08/04 11:38:27;;;;;;;3.80;1.80;;;43.00;12.60;;;;;;5095031;28;20383;-76
2022/08/04 11:41:00;;;;;;;5.05;1.80;;;42.60;12.40;;;;;;5092131;28;20224;-76
2022/08/04 11:43:33;;;;;;;1.90;1.70;;;42.80;12.00;;;;;;5085035;28;20210;-76
2022/08/04 11:46:07;;;;;;;3.45;2.08;;;43.60;12.10;;;;;;5094682;28;20287;-76
2022/08/04 11:48:40;;;;;;;2.25;2.10;;;45.00;11.90;;;;;;5095370;28;20203;-75
2022/08/04 11:51:08;;;;;;;3.85;2.00;;;46.10;11.50;;;;;;5095000;28;20724;-75
2022/08/04 11:53:37;;;;;;;2.55;2.10;;;46.60;10.40;;;;;;5094869;28;20566;-77
2022/08/04 11:56:07;;;;;;;4.20;2.08;;;45.90;9.90;;;;;;5094505;28;20277;-76
2022/08/04 11:58:33;;;;;;;3.53;2.10;;;45.60;10.50;;;;;;5094992;28;20200;-76
2022/08/04 12:01:19;;;;;;;3.40;2.08;;;46.30;10.40;;;;;;5094508;28;20739;-77
2022/08/04 12:04:08;;;;;;;4.10;2.40;;;45.60;10.30;;;;;;5094932;28;20200;-77
2022/08/04 12:06:45;;;;;;;2.42;2.22;;;47.00;10.30;;;;;;5094514;28;20208;-76
2022/08/04 12:09:21;;;;;;;2.65;2.30;;;47.50;9.80;;;;;;5094757;28;20195;-79
2022/08/04 12:11:55;;;;;;;2.30;2.10;;;47.30;10.10;;;;;;5094280;28;20199;-76
2022/08/04 12:14:30;;;;;;;2.30;2.20;;;47.90;9.60;;;;;;5091530;28;20624;-78
2022/08/04 12:17:00;;;;;;;5.00;2.45;;;48.30;9.20;;;;;;5094149;28;20211;-77
2022/08/04 12:19:31;;;;;;;2.80;2.60;;;48.30;9.20;;;;;;5094404;28;20203;-78
2022/08/04 12:22:01;;;;;;;2.92;2.72;;;49.00;8.80;;;;;;5094279;28;20251;-77
2022/08/04 12:24:30;;;;;;;3.85;3.22;;;48.90;8.40;;;;;;5094249;28;20249;-77
2022/08/04 12:27:04;;;;;;;3.72;3.33;;;49.50;8.50;;;;;;5094276;28;20233;-77
2022/08/04 12:29:34;;;;;;;3.90;3.47;;;49.70;8.00;;;;;;5093956;28;20265;-77
2022/08/04 12:32:07;;;;;;;3.90;3.50;;;49.60;7.60;;;;;;5093829;28;20589;-75
2022/08/04 12:34:40;;;;;;;3.90;3.60;;;50.00;7.80;;;;;;5094095;28;20245;-76
2022/08/04 12:37:20;;;;;;;3.90;3.60;;;49.90;7.50;;;;;;5093650;28;20196;-76
2022/08/04 12:39:50;;;;;;;4.40;4.00;;;50.50;7.20;;;;;;5100740;28;20724;-75
2022/08/04 12:42:22;;;;;;;4.78;4.10;;;50.50;7.00;;;;;;5113412;28;20197;-75
2022/08/04 12:44:52;;;;;;;3.70;3.40;;;50.40;6.60;;;;;;5113699;28;20195;-77
2022/08/04 12:47:24;;;;;;;4.10;3.30;;;49.30;6.90;;;;;;5114364;28;20218;-78
2022/08/04 12:49:53;;;;;;;3.25;2.88;;;49.10;7.00;;;;;;5114205;28;20262;-76
2022/08/04 12:52:21;;;;;;;3.15;2.95;;;48.60;7.50;;;;;;5114038;28;20201;-76
2022/08/04 12:54:53;;;;;;;3.28;3.05;;;49.30;7.20;;;;;;5113652;28;20210;-76
2022/08/04 12:57:22;;;;;;;4.85;3.22;;;50.10;6.60;;;;;;5113395;28;20195;-76
2022/08/04 12:59:49;;;;;;;5.22;3.35;;;50.80;6.30;;;;;;5113938;28;20650;-76
2022/08/04 13:02:19;;;;;;;3.92;3.30;;;49.80;6.00;;;;;;5114234;28;20248;-75
2022/08/04 13:04:46;;;;;;;3.58;3.15;;;50.40;6.60;;;;;;5113903;28;20195;-74
2022/08/04 13:07:19;;;;;;;5.18;3.80;;;50.90;6.20;;;;;;5114053;28;20275;-76
2022/08/04 13:09:46;;;;;;;4.10;3.80;;;51.60;6.30;;;;;;5113610;28;20674;-76
2022/08/04 13:12:15;;;;;;;3.90;3.60;;;51.00;5.70;;;;;;5113753;28;20608;-76
2022/08/04 13:14:44;;;;;;;6.65;3.70;;;50.70;6.10;;;;;;5113712;28;20199;-75
2022/08/04 13:17:11;;;;;;;3.50;3.30;;;51.70;5.80;;;;;;5113194;28;20191;-75
2022/08/04 13:19:38;;;;;;;4.00;3.80;;;52.20;5.60;;;;;;5113543;28;20197;-76
2022/08/04 13:22:05;;;;;;;4.50;4.20;;;52.20;5.40;;;;;;5113471;28;20210;-76
2022/08/04 13:24:35;;;;;;;4.35;4.00;;;52.00;4.70;;;;;;5112374;28;20602;-76
2022/08/04 13:27:07;;;;;;;4.82;4.40;;;52.10;5.10;;;;;;5113428;28;20206;-76